Terminal Aerodrome Forecast
Issued by NWS

Current Version | Previous Version | Graphics & Text | Print | Product List | Glossary On
Versions: 1 2 3 4 5 6 7 8 9 10 11 12 13 14 15 16 17 18 19 20 21 22
704
FTUS41 KILN 280949 AAC
TAFLUK
TAF AMD
KLUK 280949Z 2810/2906 17007KT 3SM -SHRA BR VCTS OVC025CB
      TEMPO 2810/2813 1SM +TSRA BR OVC015CB
     FM281600 22004KT P6SM VCTS BKN040CB BKN150
     FM290200 00000KT 5SM BR BKN040 BKN150=

USA.gov is the U.S. government's official web portal to all federal, state and local government web resources and services.